Weather at Mafé - Gibraleón Airfield

Public forecast

Using degrees Celsius for public forecast. Weather courtesy of forecast.io.

Closest aviation weather report (METAR) to Mafé - Gibraleón Airfield

Closest report is Base Aérea de El Copero, 44.1 nm (81.7 km) E.

2024/07/25 07:00 (retrieved 35 minutes ago)

LEEC 250700Z 20004KT 140V250 CAVOK 24/18 Q1011

Closest aviation forecast (TAF) to Mafé - Gibraleón Airfield

Closest forecast is Faro Airport, 54.2 nm (100.4 km) WSW.

2024/07/25 06:18 (retrieved 1 hour ago)

TAF LPFR 250500Z 2506/2606 29005KT CAVOK BECMG 2509/2511 26015KT BECMG 2518/2520 30012KT